Time;durP1;ratioP1;P1;durP2;ratioP2;P2;SDS_P1;SDS_P2;PMS_P1;PMS_P2;Temp;Humidity;BMP_temperature;BMP_pressure;BME280_temperature;BME280_humidity;BME280_pressure;Samples;Min_cycle;Max_cycle;Signal;HPM_P1;HPM_P2
2022/08/13 00:00:59;;;;;;;10.07;4.32;;;;;;;;;;5073898;28;20044;-66
2022/08/13 00:03:28;;;;;;;9.48;4.40;;;;;;;;;;5071935;28;20059;-66
2022/08/13 00:05:54;;;;;;;9.90;4.78;;;;;;;;;;5079214;28;20509;-66
2022/08/13 00:08:27;;;;;;;10.52;4.75;;;;;;;;;;5079381;28;20070;-66
2022/08/13 00:10:53;;;;;;;9.90;4.68;;;;;;;;;;5080579;28;20043;-66
2022/08/13 00:13:20;;;;;;;10.70;4.38;;;;;;;;;;5078176;28;20118;-66
2022/08/13 00:15:47;;;;;;;5.72;4.20;;;;;;;;;;5064906;28;20089;-66
2022/08/13 00:18:16;;;;;;;12.35;4.22;;;;;;;;;;5044015;28;20048;-66
2022/08/13 00:20:50;;;;;;;6.35;3.97;;;;;;;;;;5078043;28;20145;-66
2022/08/13 00:23:17;;;;;;;9.77;4.15;;;;;;;;;;5062633;28;20479;-66
2022/08/13 00:25:45;;;;;;;8.20;4.10;;;;;;;;;;5063595;28;20094;-66
2022/08/13 00:28:11;;;;;;;7.85;4.18;;;;;;;;;;5073378;28;20032;-66
2022/08/13 00:30:38;;;;;;;10.80;4.38;;;;;;;;;;5084413;28;20101;-66
2022/08/13 00:33:05;;;;;;;9.55;5.00;;;;;;;;;;5079502;28;20415;-66
2022/08/13 00:35:36;;;;;;;12.88;4.68;;;;;;;;;;5062984;28;20040;-66
2022/08/13 00:38:05;;;;;;;6.75;4.00;;;;;;;;;;5060210;28;20139;-66
2022/08/13 00:40:31;;;;;;;9.95;4.40;;;;;;;;;;5063220;28;20119;-66
2022/08/13 00:43:02;;;;;;;9.88;4.10;;;;;;;;;;5082150;28;20044;-66
2022/08/13 00:45:29;;;;;;;7.53;4.28;;;;;;;;;;5079032;28;20044;-66
2022/08/13 00:50:40;;;;;;;10.35;4.50;;;;;;;;;;5080247;28;20060;-66
2022/08/13 00:53:06;;;;;;;7.15;4.70;;;;;;;;;;5057219;28;20053;-66
2022/08/13 00:55:32;;;;;;;8.55;5.03;;;;;;;;;;5075411;28;20036;-66
2022/08/13 00:58:00;;;;;;;6.32;4.05;;;;;;;;;;5077101;28;20071;-66
2022/08/13 01:00:27;;;;;;;8.85;4.65;;;;;;;;;;5059133;28;20101;-66
2022/08/13 01:02:54;;;;;;;8.70;4.50;;;;;;;;;;5077639;28;20410;-66
2022/08/13 01:05:24;;;;;;;6.43;4.10;;;;;;;;;;5076266;28;20059;-66
2022/08/13 01:07:51;;;;;;;10.57;5.00;;;;;;;;;;5076059;28;20052;-66
2022/08/13 01:10:19;;;;;;;15.05;4.50;;;;;;;;;;5063374;28;20055;-66
2022/08/13 01:12:46;;;;;;;7.93;4.65;;;;;;;;;;5076805;28;20052;-66
2022/08/13 01:15:13;;;;;;;9.27;4.82;;;;;;;;;;5078469;28;20046;-66
2022/08/13 01:17:40;;;;;;;13.07;5.00;;;;;;;;;;5076529;28;20084;-66
2022/08/13 01:20:09;;;;;;;7.97;4.53;;;;;;;;;;5080270;28;20044;-66
2022/08/13 01:22:36;;;;;;;8.45;4.72;;;;;;;;;;5062074;28;20087;-66
2022/08/13 01:25:05;;;;;;;11.38;4.80;;;;;;;;;;5079987;28;20092;-66
2022/08/13 01:27:31;;;;;;;11.98;5.03;;;;;;;;;;5051795;28;21020;-66
2022/08/13 01:30:01;;;;;;;8.20;4.68;;;;;;;;;;5076742;28;20051;-66
2022/08/13 01:32:27;;;;;;;9.50;4.55;;;;;;;;;;5074432;28;20055;-66
2022/08/13 01:34:53;;;;;;;6.70;4.35;;;;;;;;;;5078998;28;20059;-66
2022/08/13 01:37:20;;;;;;;6.70;4.75;;;;;;;;;;5076573;28;20043;-66
2022/08/13 01:39:48;;;;;;;13.23;5.55;;;;;;;;;;5080713;28;20048;-66
2022/08/13 01:42:20;;;;;;;8.63;4.90;;;;;;;;;;5083749;28;20051;-66
2022/08/13 01:44:48;;;;;;;8.68;4.72;;;;;;;;;;5070327;28;20054;-66
2022/08/13 01:52:46;;;;;;;9.27;4.85;;;;;;;;;;5079010;28;20122;-66
2022/08/13 01:55:13;;;;;;;10.52;4.63;;;;;;;;;;5075165;28;20051;-66
2022/08/13 01:57:43;;;;;;;9.82;4.40;;;;;;;;;;5059167;28;20046;-66
2022/08/13 02:00:13;;;;;;;11.93;4.57;;;;;;;;;;5050215;28;20139;-66
2022/08/13 02:02:42;;;;;;;8.25;4.68;;;;;;;;;;5076123;28;20043;-66
2022/08/13 02:05:10;;;;;;;10.88;4.95;;;;;;;;;;5077503;28;20058;-66
2022/08/13 02:07:37;;;;;;;6.85;4.40;;;;;;;;;;5056370;28;20044;-66
2022/08/13 02:10:03;;;;;;;10.50;4.82;;;;;;;;;;5077457;28;20058;-66
2022/08/13 02:12:30;;;;;;;9.18;4.38;;;;;;;;;;5058888;28;20096;-66
2022/08/13 02:14:58;;;;;;;8.75;4.40;;;;;;;;;;5078139;28;20044;-66
2022/08/13 02:17:25;;;;;;;7.43;4.28;;;;;;;;;;5062550;28;20051;-66
2022/08/13 02:19:53;;;;;;;6.93;4.63;;;;;;;;;;5079862;28;20498;-66
2022/08/13 02:22:19;;;;;;;6.65;4.38;;;;;;;;;;5075269;28;20044;-66
2022/08/13 02:24:51;;;;;;;11.65;4.38;;;;;;;;;;5059680;28;20067;-66
2022/08/13 02:27:20;;;;;;;8.07;4.45;;;;;;;;;;5058358;28;20446;-66
2022/08/13 02:29:47;;;;;;;9.07;4.43;;;;;;;;;;5077745;28;20044;-66
2022/08/13 02:32:13;;;;;;;15.52;4.22;;;;;;;;;;5060081;28;20051;-66
2022/08/13 02:34:39;;;;;;;11.20;3.95;;;;;;;;;;5074750;28;20105;-66
2022/08/13 02:37:06;;;;;;;9.10;4.50;;;;;;;;;;5079087;28;20047;-66
2022/08/13 02:39:32;;;;;;;10.68;4.57;;;;;;;;;;5078538;28;20074;-66
2022/08/13 02:41:58;;;;;;;6.03;3.92;;;;;;;;;;5057739;28;20101;-66
2022/08/13 02:44:25;;;;;;;5.80;3.67;;;;;;;;;;5075903;28;20134;-66
2022/08/13 02:46:51;;;;;;;9.57;3.92;;;;;;;;;;5080272;28;20067;-66
2022/08/13 02:49:21;;;;;;;8.55;3.70;;;;;;;;;;5076578;28;20052;-66
2022/08/13 02:51:47;;;;;;;9.90;3.50;;;;;;;;;;5077749;28;20120;-66
2022/08/13 02:54:16;;;;;;;10.50;4.07;;;;;;;;;;5071944;28;20475;-66
2022/08/13 02:56:44;;;;;;;7.68;3.53;;;;;;;;;;5057384;28;20560;-66
2022/08/13 02:59:10;;;;;;;7.75;4.10;;;;;;;;;;5060889;28;20048;-65
2022/08/13 03:01:38;;;;;;;13.20;3.95;;;;;;;;;;5075901;28;20032;-66
2022/08/13 03:04:05;;;;;;;8.23;4.00;;;;;;;;;;5071977;28;20036;-66
2022/08/13 03:06:31;;;;;;;7.40;3.58;;;;;;;;;;5044126;28;20471;-66
2022/08/13 03:08:58;;;;;;;13.30;3.63;;;;;;;;;;5080426;28;20039;-66
2022/08/13 03:11:24;;;;;;;7.43;3.50;;;;;;;;;;5061008;28;20049;-66
2022/08/13 03:13:56;;;;;;;8.07;3.63;;;;;;;;;;5059395;28;20170;-66
2022/08/13 03:16:24;;;;;;;7.38;3.53;;;;;;;;;;5077046;28;20117;-66
2022/08/13 03:18:53;;;;;;;7.22;4.25;;;;;;;;;;5060659;28;20045;-66
2022/08/13 03:21:19;;;;;;;10.27;3.80;;;;;;;;;;5079935;28;20139;-66
2022/08/13 03:23:46;;;;;;;6.97;3.63;;;;;;;;;;5050619;28;20052;-66
2022/08/13 03:26:13;;;;;;;11.48;3.90;;;;;;;;;;5078792;28;20105;-66
2022/08/13 03:28:39;;;;;;;7.90;3.75;;;;;;;;;;5083110;28;20063;-66
2022/08/13 03:31:06;;;;;;;6.65;3.92;;;;;;;;;;5070341;28;20040;-66
2022/08/13 03:33:32;;;;;;;18.20;5.13;;;;;;;;;;5060552;28;20119;-66
2022/08/13 03:35:58;;;;;;;9.25;4.15;;;;;;;;;;5060998;28;20040;-66
2022/08/13 03:38:25;;;;;;;6.15;3.60;;;;;;;;;;5062304;28;20067;-66
2022/08/13 03:41:01;;;;;;;8.07;4.13;;;;;;;;;;5080374;28;20040;-66
2022/08/13 03:43:27;;;;;;;6.68;3.85;;;;;;;;;;5080173;28;20052;-66
2022/08/13 03:45:54;;;;;;;6.63;4.10;;;;;;;;;;5080626;28;20040;-66
2022/08/13 03:48:21;;;;;;;11.20;3.65;;;;;;;;;;5078559;28;20071;-66
2022/08/13 03:50:48;;;;;;;7.47;3.63;;;;;;;;;;5061291;28;20486;-66
2022/08/13 03:53:16;;;;;;;10.18;4.07;;;;;;;;;;5081141;28;20188;-66
2022/08/13 03:55:42;;;;;;;7.65;4.15;;;;;;;;;;5075835;28;21222;-66
2022/08/13 03:58:09;;;;;;;10.63;4.00;;;;;;;;;;5061188;28;20040;-66
2022/08/13 04:00:38;;;;;;;9.45;3.83;;;;;;;;;;5080623;28;20120;-66
2022/08/13 04:03:14;;;;;;;8.55;3.67;;;;;;;;;;5044789;28;20159;-66
2022/08/13 04:05:40;;;;;;;4.82;3.28;;;;;;;;;;5077034;28;20713;-66
2022/08/13 04:08:07;;;;;;;8.25;3.45;;;;;;;;;;5076219;28;20499;-66
2022/08/13 04:10:33;;;;;;;11.95;3.80;;;;;;;;;;5060060;28;20067;-66
2022/08/13 04:13:00;;;;;;;11.68;3.72;;;;;;;;;;5076380;28;20047;-66
2022/08/13 04:15:26;;;;;;;7.15;4.00;;;;;;;;;;5077966;28;20043;-66
2022/08/13 04:17:53;;;;;;;10.10;3.80;;;;;;;;;;5053534;28;20131;-66
2022/08/13 04:20:19;;;;;;;8.57;4.25;;;;;;;;;;5058174;28;20070;-66
2022/08/13 04:22:45;;;;;;;7.20;3.65;;;;;;;;;;5057222;28;20360;-66
2022/08/13 04:25:12;;;;;;;8.38;4.32;;;;;;;;;;5062230;28;20088;-66
2022/08/13 04:27:38;;;;;;;7.82;4.00;;;;;;;;;;5059039;28;20487;-66
2022/08/13 04:30:05;;;;;;;9.23;3.80;;;;;;;;;;5041289;28;20471;-66
2022/08/13 04:32:42;;;;;;;14.35;3.97;;;;;;;;;;5076741;28;20123;-66
2022/08/13 04:35:08;;;;;;;8.77;4.10;;;;;;;;;;5075490;28;20093;-66
2022/08/13 04:37:34;;;;;;;6.88;3.90;;;;;;;;;;5080033;28;20742;-66
2022/08/13 04:40:01;;;;;;;7.75;3.58;;;;;;;;;;5077564;28;20080;-66
2022/08/13 04:42:27;;;;;;;8.30;3.85;;;;;;;;;;5080135;28;20071;-66
2022/08/13 04:44:53;;;;;;;7.35;3.63;;;;;;;;;;5077304;28;20056;-66
2022/08/13 04:47:19;;;;;;;7.80;3.67;;;;;;;;;;5075426;28;20138;-66
2022/08/13 04:49:48;;;;;;;10.68;3.83;;;;;;;;;;5074848;28;20081;-66
2022/08/13 04:52:14;;;;;;;7.45;3.22;;;;;;;;;;5057417;28;20139;-66
2022/08/13 04:54:41;;;;;;;9.48;3.63;;;;;;;;;;5076180;28;20040;-66
2022/08/13 04:57:08;;;;;;;7.35;3.50;;;;;;;;;;5056339;28;20047;-66
2022/08/13 04:59:34;;;;;;;8.40;3.30;;;;;;;;;;5081796;28;20036;-66
2022/08/13 05:02:00;;;;;;;8.10;3.85;;;;;;;;;;5070208;28;20451;-66
2022/08/13 05:04:26;;;;;;;8.45;4.22;;;;;;;;;;5074765;28;20452;-66
2022/08/13 05:06:52;;;;;;;7.88;3.10;;;;;;;;;;5078476;28;20195;-66
2022/08/13 05:09:20;;;;;;;10.65;3.38;;;;;;;;;;5077981;28;20139;-66
2022/08/13 05:11:46;;;;;;;15.70;3.47;;;;;;;;;;5060680;28;20100;-66
2022/08/13 05:14:12;;;;;;;13.20;3.78;;;;;;;;;;5079142;28;20032;-66
2022/08/13 05:16:39;;;;;;;7.20;3.25;;;;;;;;;;5077630;28;20052;-66
2022/08/13 05:19:05;;;;;;;6.18;3.60;;;;;;;;;;5060683;28;20101;-66
2022/08/13 05:21:33;;;;;;;6.80;3.25;;;;;;;;;;5064100;28;20040;-66
2022/08/13 05:23:59;;;;;;;7.22;3.10;;;;;;;;;;5077230;28;20146;-66
2022/08/13 05:26:28;;;;;;;7.63;3.17;;;;;;;;;;5076232;28;20531;-66
2022/08/13 05:28:56;;;;;;;7.47;3.20;;;;;;;;;;5059573;28;20047;-66
2022/08/13 05:31:22;;;;;;;8.80;3.33;;;;;;;;;;5050470;28;20125;-66
2022/08/13 05:33:49;;;;;;;7.50;3.42;;;;;;;;;;5077688;28;20540;-66
2022/08/13 05:36:15;;;;;;;8.35;3.70;;;;;;;;;;5060981;28;20036;-66
2022/08/13 05:38:41;;;;;;;11.43;3.70;;;;;;;;;;5080763;28;20062;-66
2022/08/13 05:41:10;;;;;;;6.78;3.03;;;;;;;;;;5076786;28;20043;-66
2022/08/13 05:43:36;;;;;;;10.43;3.58;;;;;;;;;;5077306;28;20556;-65
2022/08/13 05:46:04;;;;;;;8.35;4.13;;;;;;;;;;5079168;28;20450;-66
2022/08/13 05:48:31;;;;;;;10.50;3.85;;;;;;;;;;5078325;28;20186;-66
2022/08/13 05:51:00;;;;;;;7.90;3.40;;;;;;;;;;5079250;28;20487;-66
2022/08/13 05:53:27;;;;;;;9.75;3.47;;;;;;;;;;5062771;28;20032;-66
2022/08/13 05:55:54;;;;;;;10.07;3.60;;;;;;;;;;5065388;28;20124;-66
2022/08/13 05:58:21;;;;;;;9.20;3.38;;;;;;;;;;5079931;28;20094;-66
2022/08/13 06:03:32;;;;;;;7.43;3.42;;;;;;;;;;5059672;28;20495;-65
2022/08/13 06:05:59;;;;;;;7.53;3.25;;;;;;;;;;5063741;28;21694;-65
2022/08/13 06:08:30;;;;;;;9.95;2.97;;;;;;;;;;5059358;28;20052;-65
2022/08/13 06:10:57;;;;;;;6.03;3.05;;;;;;;;;;5076722;28;20040;-65
2022/08/13 06:13:23;;;;;;;6.55;2.70;;;;;;;;;;5080886;28;20067;-65
2022/08/13 06:15:57;;;;;;;9.55;3.45;;;;;;;;;;5080274;28;20090;-65
2022/08/13 06:18:25;;;;;;;6.22;3.40;;;;;;;;;;5062365;28;20398;-65
2022/08/13 06:20:54;;;;;;;6.80;2.85;;;;;;;;;;5078707;28;20055;-65
2022/08/13 06:23:24;;;;;;;5.25;2.90;;;;;;;;;;5061685;28;20074;-65
2022/08/13 06:25:52;;;;;;;6.38;3.03;;;;;;;;;;5059669;28;20146;-65
2022/08/13 06:28:21;;;;;;;6.80;2.95;;;;;;;;;;5061602;28;20475;-65
2022/08/13 06:30:48;;;;;;;7.93;2.70;;;;;;;;;;5077684;28;20159;-65
2022/08/13 06:33:14;;;;;;;7.28;3.25;;;;;;;;;;5075217;28;20032;-66
2022/08/13 06:35:41;;;;;;;5.55;3.10;;;;;;;;;;5061955;28;20399;-66
2022/08/13 06:38:07;;;;;;;6.18;2.67;;;;;;;;;;5078957;28;20089;-66
2022/08/13 06:40:35;;;;;;;11.15;3.95;;;;;;;;;;5080630;28;20059;-66
2022/08/13 06:43:02;;;;;;;6.25;3.17;;;;;;;;;;5080343;28;20040;-66
2022/08/13 06:45:28;;;;;;;8.80;2.65;;;;;;;;;;5082101;28;20402;-66
2022/08/13 06:47:55;;;;;;;8.73;3.15;;;;;;;;;;5082404;28;20395;-66
2022/08/13 06:50:21;;;;;;;5.13;2.60;;;;;;;;;;5078390;28;20051;-66
2022/08/13 06:52:47;;;;;;;9.23;2.72;;;;;;;;;;5060621;28;20183;-66
2022/08/13 06:55:13;;;;;;;6.43;2.50;;;;;;;;;;5077401;28;20036;-66
2022/08/13 06:57:40;;;;;;;6.30;2.20;;;;;;;;;;5077895;28;20047;-66
2022/08/13 07:00:10;;;;;;;7.07;2.88;;;;;;;;;;5060105;28;20101;-66
2022/08/13 07:02:37;;;;;;;7.82;2.53;;;;;;;;;;5059631;28;21187;-66
2022/08/13 07:05:04;;;;;;;4.75;2.28;;;;;;;;;;5079788;28;20036;-66
2022/08/13 07:07:31;;;;;;;6.10;2.25;;;;;;;;;;5074602;28;20028;-66
2022/08/13 07:09:57;;;;;;;4.50;2.22;;;;;;;;;;5078422;28;20036;-66
2022/08/13 07:12:24;;;;;;;8.18;2.67;;;;;;;;;;5077026;28;20452;-66
2022/08/13 07:14:51;;;;;;;5.18;2.42;;;;;;;;;;5059760;28;20131;-66
2022/08/13 07:17:20;;;;;;;8.02;2.45;;;;;;;;;;5060680;28;20048;-66
2022/08/13 07:19:46;;;;;;;8.68;2.33;;;;;;;;;;5064323;28;20348;-66
2022/08/13 07:22:12;;;;;;;5.07;1.90;;;;;;;;;;5082786;28;20155;-66
2022/08/13 07:24:38;;;;;;;8.10;1.95;;;;;;;;;;5083058;28;20203;-66
2022/08/13 07:27:06;;;;;;;5.07;2.22;;;;;;;;;;5066089;28;20080;-66
2022/08/13 07:29:35;;;;;;;5.72;1.90;;;;;;;;;;5084410;28;20044;-66
2022/08/13 07:32:03;;;;;;;4.25;2.03;;;;;;;;;;5072959;28;20133;-66
2022/08/13 07:34:32;;;;;;;4.70;1.85;;;;;;;;;;5065287;28;20044;-66
2022/08/13 07:36:59;;;;;;;4.38;1.73;;;;;;;;;;5063913;28;20106;-66
2022/08/13 07:39:25;;;;;;;5.82;1.88;;;;;;;;;;5076655;28;20044;-66
2022/08/13 07:41:52;;;;;;;7.43;1.92;;;;;;;;;;5080610;28;20119;-66
2022/08/13 07:44:20;;;;;;;4.72;1.80;;;;;;;;;;5080822;28;20115;-66
2022/08/13 07:46:46;;;;;;;4.45;1.60;;;;;;;;;;5081928;28;20032;-66
2022/08/13 07:49:13;;;;;;;7.38;1.50;;;;;;;;;;5081584;28;20678;-66
2022/08/13 07:51:41;;;;;;;4.30;2.15;;;;;;;;;;5078552;28;20044;-66
2022/08/13 07:54:07;;;;;;;4.82;1.75;;;;;;;;;;5081348;28;20044;-66
2022/08/13 07:56:34;;;;;;;4.22;1.38;;;;;;;;;;5082956;28;20044;-67
2022/08/13 07:59:02;;;;;;;4.15;1.50;;;;;;;;;;5064707;28;20742;-65
2022/08/13 08:01:29;;;;;;;5.10;1.48;;;;;;;;;;5085139;28;20036;-65
2022/08/13 08:03:57;;;;;;;6.57;1.83;;;;;;;;;;5067857;28;20044;-65
2022/08/13 08:06:24;;;;;;;3.83;1.42;;;;;;;;;;5086901;28;20059;-65
2022/08/13 08:08:54;;;;;;;3.92;1.45;;;;;;;;;;5067093;28;20055;-66
2022/08/13 08:14:06;;;;;;;6.85;1.60;;;;;;;;;;5063297;28;20050;-65
2022/08/13 08:16:34;;;;;;;4.72;1.52;;;;;;;;;;5083551;28;20112;-65
2022/08/13 08:19:00;;;;;;;5.78;1.52;;;;;;;;;;5063711;28;20049;-66
2022/08/13 08:21:27;;;;;;;7.75;1.45;;;;;;;;;;5083845;28;20094;-66
2022/08/13 08:23:57;;;;;;;7.20;1.63;;;;;;;;;;5081078;28;20032;-66
2022/08/13 08:26:26;;;;;;;5.50;1.60;;;;;;;;;;5063197;28;20032;-66
2022/08/13 08:28:53;;;;;;;5.22;1.40;;;;;;;;;;5083476;28;20111;-65
2022/08/13 08:31:21;;;;;;;3.50;1.20;;;;;;;;;;5081113;28;20107;-65
2022/08/13 08:33:47;;;;;;;8.50;1.80;;;;;;;;;;5062547;28;20546;-65
2022/08/13 08:36:14;;;;;;;4.35;1.52;;;;;;;;;;5084000;28;20063;-66
2022/08/13 08:44:24;;;;;;;5.22;1.55;;;;;;;;;;5064941;28;20419;-66
2022/08/13 08:46:56;;;;;;;4.57;1.63;;;;;;;;;;5081195;28;20086;-66
2022/08/13 08:49:24;;;;;;;2.90;1.23;;;;;;;;;;5082828;28;20036;-66
2022/08/13 08:51:50;;;;;;;10.32;1.90;;;;;;;;;;5084155;28;20054;-66
2022/08/13 08:54:18;;;;;;;4.60;1.77;;;;;;;;;;5084146;28;20399;-66
2022/08/13 08:56:45;;;;;;;5.03;1.42;;;;;;;;;;5083190;28;20060;-65
2022/08/13 08:59:13;;;;;;;4.55;1.58;;;;;;;;;;5064560;28;20511;-66
2022/08/13 09:01:40;;;;;;;3.45;1.20;;;;;;;;;;5079696;28;20089;-65
2022/08/13 09:04:09;;;;;;;4.10;1.30;;;;;;;;;;5065807;28;20042;-66
2022/08/13 09:06:35;;;;;;;4.38;1.30;;;;;;;;;;5084279;28;20090;-65
2022/08/13 09:09:03;;;;;;;6.22;1.30;;;;;;;;;;5082244;28;20051;-66
2022/08/13 09:11:34;;;;;;;4.57;1.30;;;;;;;;;;5063264;28;20109;-66
2022/08/13 09:14:05;;;;;;;5.40;1.30;;;;;;;;;;5063146;28;20079;-66
2022/08/13 09:16:31;;;;;;;6.18;1.50;;;;;;;;;;5062922;28;20072;-66
2022/08/13 09:18:58;;;;;;;6.30;1.38;;;;;;;;;;5080964;28;20068;-66
2022/08/13 09:21:25;;;;;;;4.18;1.38;;;;;;;;;;5060451;28;20634;-66
2022/08/13 09:23:52;;;;;;;4.57;1.40;;;;;;;;;;5075716;28;20047;-66
2022/08/13 09:26:20;;;;;;;6.07;1.25;;;;;;;;;;5080114;28;20480;-77
2022/08/13 09:28:46;;;;;;;62.47;4.07;;;;;;;;;;5060853;28;20048;-66
2022/08/13 09:31:13;;;;;;;2.72;1.35;;;;;;;;;;5077421;28;20044;-66
2022/08/13 09:33:39;;;;;;;3.25;1.27;;;;;;;;;;5080576;28;20440;-66
2022/08/13 09:36:09;;;;;;;4.68;1.40;;;;;;;;;;5072308;28;20852;-66
2022/08/13 09:38:36;;;;;;;4.90;1.60;;;;;;;;;;5077252;28;20376;-66
2022/08/13 09:41:15;;;;;;;9.57;1.67;;;;;;;;;;5077344;28;20043;-71
2022/08/13 09:43:44;;;;;;;3.30;1.10;;;;;;;;;;5078201;28;20048;-65
2022/08/13 09:46:11;;;;;;;3.08;1.08;;;;;;;;;;5078717;28;20123;-66
2022/08/13 09:48:38;;;;;;;4.40;1.35;;;;;;;;;;5061994;28;20286;-66
2022/08/13 09:51:08;;;;;;;6.40;1.20;;;;;;;;;;5063452;28;20048;-80
2022/08/13 09:53:34;;;;;;;4.13;1.23;;;;;;;;;;5067580;28;20391;-78
2022/08/13 09:56:00;;;;;;;3.08;0.90;;;;;;;;;;5065585;28;20166;-66
2022/08/13 09:58:27;;;;;;;2.40;1.10;;;;;;;;;;5081839;28;20040;-66
2022/08/13 10:00:54;;;;;;;5.22;1.20;;;;;;;;;;5084177;28;20177;-66
2022/08/13 10:03:20;;;;;;;6.88;1.13;;;;;;;;;;5083416;28;21627;-66
2022/08/13 10:05:47;;;;;;;3.78;1.15;;;;;;;;;;5080017;28;20060;-66
2022/08/13 10:08:16;;;;;;;5.28;0.98;;;;;;;;;;5083043;28;20090;-66
2022/08/13 10:10:42;;;;;;;3.28;1.00;;;;;;;;;;5081597;28;20172;-66
2022/08/13 10:13:08;;;;;;;5.53;0.93;;;;;;;;;;5083155;28;20098;-66
2022/08/13 10:15:35;;;;;;;4.38;1.42;;;;;;;;;;5081884;28;20032;-66
2022/08/13 10:18:03;;;;;;;4.03;1.00;;;;;;;;;;5079042;28;20442;-67
2022/08/13 10:20:30;;;;;;;3.28;0.70;;;;;;;;;;5080189;28;20403;-66
2022/08/13 10:22:57;;;;;;;7.47;0.90;;;;;;;;;;5082357;28;20113;-66
2022/08/13 10:25:24;;;;;;;3.78;0.88;;;;;;;;;;5080914;28;20040;-66
2022/08/13 10:27:51;;;;;;;7.47;1.20;;;;;;;;;;5062654;28;20394;-66
2022/08/13 10:30:19;;;;;;;4.70;0.75;;;;;;;;;;5081316;28;20055;-66
2022/08/13 10:32:46;;;;;;;5.18;1.13;;;;;;;;;;5080731;28;20044;-65
2022/08/13 10:35:14;;;;;;;3.80;0.98;;;;;;;;;;5078094;28;20047;-65
2022/08/13 10:37:45;;;;;;;3.10;1.00;;;;;;;;;;5081239;28;21660;-66
2022/08/13 10:40:14;;;;;;;9.55;1.10;;;;;;;;;;5079634;28;20501;-66
2022/08/13 10:42:42;;;;;;;6.05;0.98;;;;;;;;;;5060677;28;20134;-66
2022/08/13 10:45:08;;;;;;;3.38;0.90;;;;;;;;;;5080210;28;20126;-67
2022/08/13 10:47:44;;;;;;;1.90;0.80;;;;;;;;;;5061059;28;20044;-67
2022/08/13 10:50:10;;;;;;;3.75;1.00;;;;;;;;;;5062761;28;20048;-67
2022/08/13 10:52:36;;;;;;;2.70;0.70;;;;;;;;;;5080584;28;20120;-66
2022/08/13 10:55:02;;;;;;;3.67;1.00;;;;;;;;;;5080829;28;20040;-66
2022/08/13 10:57:28;;;;;;;4.40;1.00;;;;;;;;;;5080792;28;20097;-66
2022/08/13 10:59:54;;;;;;;4.00;0.75;;;;;;;;;;5079535;28;20040;-66
2022/08/13 11:02:21;;;;;;;2.70;0.80;;;;;;;;;;5063199;28;20109;-66
2022/08/13 11:04:47;;;;;;;4.30;1.00;;;;;;;;;;5079018;28;20060;-66
2022/08/13 11:07:13;;;;;;;1.55;0.60;;;;;;;;;;5080645;28;20067;-66
2022/08/13 11:09:39;;;;;;;2.88;0.95;;;;;;;;;;5081192;28;20062;-66
2022/08/13 11:12:07;;;;;;;5.75;0.80;;;;;;;;;;5083281;28;20051;-67
2022/08/13 11:14:34;;;;;;;2.30;0.75;;;;;;;;;;5060964;28;20493;-67
2022/08/13 11:17:00;;;;;;;4.32;1.10;;;;;;;;;;5084648;28;20040;-67
2022/08/13 11:19:28;;;;;;;2.50;0.88;;;;;;;;;;5084686;28;20036;-66
2022/08/13 11:21:55;;;;;;;7.47;0.90;;;;;;;;;;5083689;28;20040;-67
2022/08/13 11:24:21;;;;;;;2.60;0.90;;;;;;;;;;5067040;28;20432;-67
2022/08/13 11:26:47;;;;;;;5.82;0.90;;;;;;;;;;5065992;28;20056;-66
2022/08/13 11:29:14;;;;;;;3.55;0.98;;;;;;;;;;5076515;28;20036;-67
2022/08/13 11:31:41;;;;;;;3.13;1.00;;;;;;;;;;5081582;28;20068;-66
2022/08/13 11:34:07;;;;;;;2.00;0.93;;;;;;;;;;5081795;28;20127;-66
2022/08/13 11:36:34;;;;;;;3.92;0.73;;;;;;;;;;5080350;28;20036;-66
2022/08/13 11:39:01;;;;;;;3.20;0.93;;;;;;;;;;5045124;28;20044;-66
2022/08/13 11:41:27;;;;;;;4.05;0.70;;;;;;;;;;5080695;28;20036;-66
2022/08/13 11:43:53;;;;;;;1.85;0.70;;;;;;;;;;5079590;28;20043;-67
2022/08/13 11:46:20;;;;;;;2.70;1.10;;;;;;;;;;5081558;28;20403;-67
2022/08/13 11:48:46;;;;;;;4.80;0.80;;;;;;;;;;5063203;28;20530;-67
2022/08/13 11:51:12;;;;;;;1.92;0.73;;;;;;;;;;5057894;28;20139;-66
2022/08/13 11:53:39;;;;;;;3.85;0.70;;;;;;;;;;5082541;28;20050;-67
2022/08/13 11:56:05;;;;;;;4.53;0.80;;;;;;;;;;5079422;28;20051;-67
2022/08/13 11:58:32;;;;;;;2.78;0.75;;;;;;;;;;5082253;28;20127;-66
2022/08/13 12:00:59;;;;;;;3.58;0.80;;;;;;;;;;5067329;28;20105;-66
2022/08/13 12:03:25;;;;;;;4.20;0.98;;;;;;;;;;5084703;28;21435;-66
2022/08/13 12:05:51;;;;;;;4.18;0.93;;;;;;;;;;5065801;28;20036;-66
2022/08/13 12:08:19;;;;;;;3.75;0.85;;;;;;;;;;5083027;28;20044;-66
2022/08/13 12:10:45;;;;;;;5.78;1.02;;;;;;;;;;5064981;28;20255;-66
2022/08/13 12:13:12;;;;;;;1.88;0.70;;;;;;;;;;5066508;28;20051;-66
2022/08/13 12:15:38;;;;;;;2.10;0.70;;;;;;;;;;5083260;28;20120;-66
2022/08/13 12:18:05;;;;;;;1.88;0.80;;;;;;;;;;5081515;28;20490;-67
2022/08/13 12:20:31;;;;;;;5.38;1.50;;;;;;;;;;5082636;28;20494;-66
2022/08/13 12:22:59;;;;;;;3.78;0.93;;;;;;;;;;5082786;28;20542;-66
2022/08/13 12:25:26;;;;;;;3.22;0.77;;;;;;;;;;5065306;28;20605;-66
2022/08/13 12:28:09;;;;;;;2.35;1.02;;;;;;;;;;5083793;28;20615;-66
2022/08/13 12:30:36;;;;;;;3.55;0.82;;;;;;;;;;5082445;28;20141;-66
2022/08/13 12:33:02;;;;;;;3.33;0.80;;;;;;;;;;5080982;28;20169;-66
2022/08/13 12:35:28;;;;;;;1.50;0.80;;;;;;;;;;5080235;28;20125;-66
2022/08/13 12:37:54;;;;;;;3.47;0.90;;;;;;;;;;5082062;28;20040;-66
2022/08/13 12:40:20;;;;;;;4.78;0.80;;;;;;;;;;5083744;28;20051;-66
2022/08/13 12:42:46;;;;;;;7.35;0.90;;;;;;;;;;5082961;28;20047;-66
2022/08/13 12:45:14;;;;;;;4.28;1.08;;;;;;;;;;5082158;28;20039;-66
2022/08/13 12:47:40;;;;;;;2.40;0.70;;;;;;;;;;5082205;28;20499;-65
2022/08/13 12:50:06;;;;;;;2.20;0.80;;;;;;;;;;5084490;28;20043;-66
2022/08/13 12:52:32;;;;;;;4.10;1.10;;;;;;;;;;5083956;28;20084;-66
2022/08/13 12:55:00;;;;;;;5.43;1.00;;;;;;;;;;5068203;28;20046;-66
2022/08/13 12:57:26;;;;;;;4.10;0.90;;;;;;;;;;5085429;28;20040;-66
2022/08/13 12:59:52;;;;;;;2.45;0.90;;;;;;;;;;5082212;28;20097;-66
2022/08/13 13:02:19;;;;;;;4.00;0.90;;;;;;;;;;5074501;28;20546;-64
2022/08/13 13:04:45;;;;;;;3.45;1.17;;;;;;;;;;5084506;28;20052;-64
2022/08/13 13:07:11;;;;;;;2.97;0.82;;;;;;;;;;5080492;28;20048;-64
2022/08/13 13:09:37;;;;;;;4.82;0.90;;;;;;;;;;5081546;28;20403;-64
2022/08/13 13:12:04;;;;;;;1.38;0.80;;;;;;;;;;5084854;28;20032;-64
2022/08/13 13:14:30;;;;;;;5.13;0.80;;;;;;;;;;5067093;28;20060;-64
2022/08/13 13:16:56;;;;;;;2.40;0.90;;;;;;;;;;5084346;28;20422;-64
2022/08/13 13:19:22;;;;;;;2.75;0.80;;;;;;;;;;5082200;28;20054;-64
2022/08/13 13:21:49;;;;;;;3.75;0.73;;;;;;;;;;5060818;28;20247;-64
2022/08/13 13:24:15;;;;;;;3.13;0.90;;;;;;;;;;5080832;28;20542;-65
2022/08/13 13:26:42;;;;;;;3.15;0.85;;;;;;;;;;5065282;28;20101;-64
2022/08/13 13:29:11;;;;;;;4.25;0.88;;;;;;;;;;5082255;28;20184;-64
2022/08/13 13:31:39;;;;;;;2.90;0.70;;;;;;;;;;5081385;28;20075;-64
2022/08/13 13:34:05;;;;;;;3.53;0.90;;;;;;;;;;5076449;28;20083;-64
2022/08/13 13:36:32;;;;;;;3.92;0.90;;;;;;;;;;5080013;28;20037;-64
2022/08/13 13:38:58;;;;;;;1.95;0.70;;;;;;;;;;5063140;28;20540;-64
2022/08/13 13:41:24;;;;;;;3.90;1.27;;;;;;;;;;5063174;28;20059;-65
2022/08/13 13:43:51;;;;;;;3.53;1.00;;;;;;;;;;5080254;28;20130;-65
2022/08/13 13:46:17;;;;;;;2.00;0.98;;;;;;;;;;5081042;28;20108;-65
2022/08/13 13:48:44;;;;;;;4.78;0.70;;;;;;;;;;5080002;28;20052;-64
2022/08/13 13:51:11;;;;;;;2.38;0.80;;;;;;;;;;5083581;28;20059;-64
2022/08/13 13:53:38;;;;;;;3.20;0.90;;;;;;;;;;5063518;28;20538;-65
2022/08/13 13:56:06;;;;;;;3.45;0.75;;;;;;;;;;5081924;28;20038;-64
2022/08/13 13:58:33;;;;;;;2.67;1.00;;;;;;;;;;5080441;28;20040;-65
2022/08/13 14:01:01;;;;;;;2.45;0.80;;;;;;;;;;5081443;28;20047;-65
2022/08/13 14:03:29;;;;;;;2.05;0.80;;;;;;;;;;5047326;28;20078;-65
2022/08/13 14:05:55;;;;;;;2.30;0.90;;;;;;;;;;5080546;28;20085;-65
2022/08/13 14:08:22;;;;;;;3.03;0.90;;;;;;;;;;5080547;28;20027;-65
2022/08/13 14:10:52;;;;;;;3.33;0.90;;;;;;;;;;5080094;28;20051;-64
2022/08/13 14:13:18;;;;;;;3.17;0.90;;;;;;;;;;5081448;28;20044;-64
2022/08/13 14:15:45;;;;;;;3.38;0.80;;;;;;;;;;5078726;28;20044;-64
2022/08/13 14:18:15;;;;;;;3.70;0.85;;;;;;;;;;5080223;28;20097;-64
2022/08/13 14:20:43;;;;;;;6.30;0.80;;;;;;;;;;5084010;28;20435;-65
2022/08/13 14:23:09;;;;;;;5.88;1.27;;;;;;;;;;5065898;28;20047;-65
2022/08/13 14:25:37;;;;;;;4.20;0.90;;;;;;;;;;5063669;28;20551;-65
2022/08/13 14:28:05;;;;;;;5.43;1.00;;;;;;;;;;5067000;28;20052;-64
2022/08/13 14:30:33;;;;;;;2.83;0.88;;;;;;;;;;5084196;28;20051;-64
2022/08/13 14:32:59;;;;;;;3.25;0.80;;;;;;;;;;5085032;28;20056;-64
2022/08/13 14:35:25;;;;;;;2.33;1.02;;;;;;;;;;5085131;28;20044;-64
2022/08/13 14:37:52;;;;;;;7.13;1.00;;;;;;;;;;5084208;28;20123;-64
2022/08/13 14:40:19;;;;;;;4.50;0.90;;;;;;;;;;5066627;28;20051;-65
2022/08/13 14:42:47;;;;;;;4.32;1.58;;;;;;;;;;5067084;28;20077;-64
2022/08/13 14:48:00;;;;;;;4.70;0.90;;;;;;;;;;5076916;28;20044;-64
2022/08/13 14:50:27;;;;;;;4.30;0.98;;;;;;;;;;5055360;28;20556;-64
2022/08/13 14:52:56;;;;;;;4.28;0.90;;;;;;;;;;5077172;28;20044;-64
2022/08/13 14:55:23;;;;;;;4.13;0.88;;;;;;;;;;5053223;28;20403;-64
2022/08/13 14:57:50;;;;;;;2.90;1.10;;;;;;;;;;5077443;28;20044;-64
2022/08/13 15:00:17;;;;;;;3.92;1.08;;;;;;;;;;5076536;28;20040;-64
2022/08/13 15:02:44;;;;;;;3.47;1.10;;;;;;;;;;5077970;28;20040;-64